Time;durP1;ratioP1;P1;durP2;ratioP2;P2;SDS_P1;SDS_P2;PMS_P1;PMS_P2;Temp;Humidity;BMP_temperature;BMP_pressure;BME280_temperature;BME280_humidity;BME280_pressure;Samples;Min_cycle;Max_cycle;Signal;HPM_P1;HPM_P2
2021/01/27 00:01:56;;;;;;;7.57;5.85;;;2.00;99.90;;;;;;5014708;28;20444;-91
2021/01/27 00:04:22;;;;;;;7.20;5.25;;;2.10;99.90;;;;;;5014732;28;20219;-89
2021/01/27 00:06:48;;;;;;;11.93;6.90;;;2.10;99.90;;;;;;5014814;28;20236;-91
2021/01/27 00:09:14;;;;;;;6.30;5.28;;;2.10;99.90;;;;;;5014788;28;20440;-90
2021/01/27 00:11:40;;;;;;;9.33;6.87;;;2.10;99.90;;;;;;5014825;28;20634;-90
2021/01/27 00:14:07;;;;;;;10.35;5.85;;;2.10;99.90;;;;;;5014838;28;20471;-89
2021/01/27 00:16:33;;;;;;;7.00;6.07;;;2.10;99.90;;;;;;5014582;28;20596;-90
2021/01/27 00:19:02;;;;;;;9.03;6.00;;;2.10;99.90;;;;;;5014846;28;20200;-90
2021/01/27 00:21:28;;;;;;;6.20;5.10;;;2.20;99.90;;;;;;5014785;28;20455;-91
2021/01/27 00:23:54;;;;;;;14.02;6.60;;;2.20;99.90;;;;;;5014873;28;20213;-91
2021/01/27 00:26:21;;;;;;;9.00;6.90;;;2.30;99.90;;;;;;5014347;28;20624;-90
2021/01/27 00:28:47;;;;;;;10.02;7.18;;;2.30;99.90;;;;;;5014496;28;20948;-90
2021/01/27 00:31:13;;;;;;;10.38;7.63;;;2.30;99.90;;;;;;5014540;28;20205;-90
2021/01/27 00:33:39;;;;;;;7.68;6.72;;;2.40;99.90;;;;;;5014446;28;20229;-91
2021/01/27 00:36:07;;;;;;;7.55;6.72;;;2.30;99.90;;;;;;5013831;28;20244;-89
2021/01/27 00:38:33;;;;;;;11.63;8.02;;;2.30;99.90;;;;;;5014313;28;20208;-89
2021/01/27 00:40:59;;;;;;;11.25;6.70;;;2.30;99.90;;;;;;5014319;28;20233;-91
2021/01/27 00:43:27;;;;;;;8.13;5.88;;;2.20;99.90;;;;;;5014248;28;20201;-90
2021/01/27 00:45:54;;;;;;;10.38;6.35;;;2.20;99.90;;;;;;5014188;28;20644;-89
2021/01/27 00:48:20;;;;;;;8.27;6.95;;;2.20;99.90;;;;;;5014891;28;20263;-89
2021/01/27 00:50:47;;;;;;;12.73;9.10;;;2.20;99.90;;;;;;5014668;28;20216;-89
2021/01/27 00:53:14;;;;;;;8.77;7.60;;;2.10;99.90;;;;;;5013621;28;20229;-90
2021/01/27 00:55:41;;;;;;;9.27;7.55;;;2.10;99.90;;;;;;5013808;28;20227;-88
2021/01/27 00:58:09;;;;;;;10.65;7.18;;;2.10;99.90;;;;;;5014130;28;20214;-89
2021/01/27 01:00:37;;;;;;;10.23;7.90;;;2.10;99.90;;;;;;5013736;28;20711;-88
2021/01/27 01:03:03;;;;;;;9.65;6.65;;;2.00;99.90;;;;;;5013303;28;20650;-89
2021/01/27 01:05:31;;;;;;;10.18;7.35;;;2.00;99.90;;;;;;5012858;28;20216;-91
2021/01/27 01:07:58;;;;;;;10.13;7.20;;;2.00;99.90;;;;;;5013218;28;20197;-89
2021/01/27 01:10:27;;;;;;;10.65;8.02;;;2.00;99.90;;;;;;5012946;28;20239;-89
2021/01/27 01:12:54;;;;;;;12.43;7.57;;;2.00;99.90;;;;;;5011408;28;20216;-89
2021/01/27 01:15:21;;;;;;;9.43;7.40;;;2.00;99.90;;;;;;5011048;28;20237;-89
2021/01/27 01:17:48;;;;;;;10.45;7.97;;;2.00;99.90;;;;;;5013019;28;20197;-89
2021/01/27 01:20:15;;;;;;;9.25;8.32;;;2.10;99.90;;;;;;5013081;28;20200;-89
2021/01/27 01:22:43;;;;;;;9.40;7.43;;;2.10;99.90;;;;;;5012774;28;20653;-88
2021/01/27 01:25:10;;;;;;;11.40;7.60;;;2.10;99.90;;;;;;5012552;28;20500;-89
2021/01/27 01:27:37;;;;;;;7.93;6.80;;;2.10;99.90;;;;;;5012697;28;20212;-89
2021/01/27 01:30:09;;;;;;;9.35;8.23;;;2.10;99.90;;;;;;5012710;28;20521;-89
2021/01/27 01:32:35;;;;;;;9.60;7.25;;;2.20;99.90;;;;;;5010688;28;20216;-90
2021/01/27 01:35:02;;;;;;;9.27;8.30;;;2.20;99.90;;;;;;5012331;28;20203;-89
2021/01/27 01:37:28;;;;;;;8.73;7.80;;;2.20;99.90;;;;;;5012170;28;20263;-89
2021/01/27 01:39:54;;;;;;;8.90;6.85;;;2.20;99.90;;;;;;5012703;28;20244;-89
2021/01/27 01:42:20;;;;;;;9.38;7.22;;;2.10;99.90;;;;;;5012383;28;20351;-88
2021/01/27 01:44:47;;;;;;;10.90;7.38;;;2.20;99.90;;;;;;5012544;28;20191;-89
2021/01/27 01:47:13;;;;;;;11.73;8.07;;;2.10;99.90;;;;;;5012332;28;20242;-88
2021/01/27 01:49:40;;;;;;;11.55;8.65;;;2.00;99.90;;;;;;5012393;28;20200;-87
2021/01/27 01:52:06;;;;;;;11.27;8.10;;;2.10;99.90;;;;;;5012361;28;20213;-89
2021/01/27 01:54:37;;;;;;;9.88;7.82;;;2.10;99.90;;;;;;5012216;28;20448;-89
2021/01/27 01:57:09;;;;;;;10.45;8.45;;;2.00;99.90;;;;;;5010086;28;20653;-89
2021/01/27 01:59:36;;;;;;;10.75;8.23;;;2.00;99.90;;;;;;5010695;28;20200;-89
2021/01/27 02:02:07;;;;;;;8.25;7.07;;;2.00;99.90;;;;;;5012712;28;20194;-90
2021/01/27 02:04:40;;;;;;;10.77;7.90;;;2.00;99.90;;;;;;5012407;28;20201;-90
2021/01/27 02:07:07;;;;;;;8.57;7.18;;;2.00;99.90;;;;;;5025762;28;20483;-90
2021/01/27 02:09:33;;;;;;;9.77;7.57;;;2.00;99.90;;;;;;5022293;28;20201;-89
2021/01/27 02:12:17;;;;;;;11.05;7.93;;;2.10;99.90;;;;;;5011804;28;20215;-91
2021/01/27 02:15:03;;;;;;;8.18;7.38;;;2.10;99.90;;;;;;5011437;28;20196;-91
2021/01/27 02:17:37;;;;;;;7.78;6.93;;;2.20;99.90;;;;;;5011760;28;20232;-91
2021/01/27 02:20:36;;;;;;;12.43;6.70;;;2.10;99.90;;;;;;5012421;28;20200;-89
2021/01/27 02:23:38;;;;;;;9.02;6.60;;;2.10;99.90;;;;;;5011517;28;20259;-90
2021/01/27 02:26:32;;;;;;;12.05;7.30;;;2.00;99.90;;;;;;5010088;28;20600;-90
2021/01/27 02:29:41;;;;;;;9.50;7.70;;;2.00;99.90;;;;;;5009249;28;20687;-90
2021/01/27 02:32:34;;;;;;;7.72;6.30;;;2.00;99.90;;;;;;5000709;28;20475;-89
2021/01/27 02:35:10;;;;;;;8.57;7.10;;;2.00;99.90;;;;;;5011965;28;20674;-89
2021/01/27 02:37:41;;;;;;;8.68;7.75;;;2.00;99.90;;;;;;5008326;28;20222;-88
2021/01/27 02:40:15;;;;;;;7.07;6.00;;;2.00;99.90;;;;;;5010094;28;20196;-89
2021/01/27 02:42:47;;;;;;;7.15;6.45;;;2.00;99.90;;;;;;5010228;28;20203;-89
2021/01/27 02:45:21;;;;;;;7.65;6.50;;;2.00;99.90;;;;;;5011242;28;20577;-89
2021/01/27 02:47:53;;;;;;;8.45;6.72;;;2.10;99.90;;;;;;5011519;28;20205;-89
2021/01/27 02:50:25;;;;;;;8.48;7.28;;;2.00;99.90;;;;;;5011374;28;20203;-89
2021/01/27 02:52:57;;;;;;;8.40;6.85;;;2.10;99.90;;;;;;5009229;28;20633;-88
2021/01/27 02:55:32;;;;;;;7.57;6.05;;;2.00;99.90;;;;;;5009741;28;20262;-88
2021/01/27 02:58:04;;;;;;;9.13;6.90;;;2.00;99.90;;;;;;5010394;28;20684;-89
2021/01/27 03:00:33;;;;;;;8.15;7.32;;;2.00;99.90;;;;;;5011156;28;20203;-90
2021/01/27 03:03:04;;;;;;;8.75;6.90;;;2.00;99.90;;;;;;5011261;28;20202;-89
2021/01/27 03:05:35;;;;;;;9.07;7.30;;;2.00;99.90;;;;;;5011223;28;20240;-89
2021/01/27 03:08:05;;;;;;;9.82;7.40;;;2.00;99.90;;;;;;5011595;28;20445;-89
2021/01/27 03:10:36;;;;;;;8.60;7.50;;;2.00;99.90;;;;;;5011201;28;20197;-86
2021/01/27 03:13:03;;;;;;;11.10;7.97;;;2.00;99.90;;;;;;5011065;28;20279;-86
2021/01/27 03:15:29;;;;;;;12.60;7.63;;;2.00;99.90;;;;;;5011023;28;20220;-86
2021/01/27 03:18:00;;;;;;;10.80;8.70;;;1.90;99.90;;;;;;5014510;28;20483;-86
2021/01/27 03:20:31;;;;;;;9.23;7.32;;;1.90;99.90;;;;;;5013087;28;20460;-87
2021/01/27 03:23:02;;;;;;;10.43;8.75;;;2.00;99.90;;;;;;5013252;28;20213;-86
2021/01/27 03:25:32;;;;;;;8.60;7.75;;;2.00;99.90;;;;;;5014473;28;20627;-86
2021/01/27 03:28:04;;;;;;;9.25;7.35;;;2.00;99.90;;;;;;5014142;28;20203;-86
2021/01/27 03:30:31;;;;;;;10.52;7.32;;;2.00;99.90;;;;;;5014258;28;20240;-86
2021/01/27 03:33:05;;;;;;;9.45;7.93;;;2.00;99.90;;;;;;5014616;28;20219;-86
2021/01/27 03:35:38;;;;;;;8.30;7.50;;;2.00;99.90;;;;;;5014718;28;20244;-86
2021/01/27 03:38:16;;;;;;;9.88;8.90;;;2.00;99.90;;;;;;5014747;28;20248;-87
2021/01/27 03:40:45;;;;;;;14.50;10.48;;;2.00;99.90;;;;;;5013880;28;20200;-87
2021/01/27 03:43:17;;;;;;;11.88;8.57;;;2.10;99.90;;;;;;5014711;28;20198;-86
2021/01/27 03:45:48;;;;;;;12.13;7.00;;;2.10;99.90;;;;;;5013635;28;20302;-87
2021/01/27 03:48:21;;;;;;;12.80;8.27;;;2.10;99.90;;;;;;5014293;28;20490;-88
2021/01/27 03:50:54;;;;;;;7.87;7.07;;;2.10;99.90;;;;;;5015008;28;20197;-87
2021/01/27 03:53:22;;;;;;;7.43;6.82;;;2.10;99.90;;;;;;5014965;28;20603;-87
2021/01/27 03:55:53;;;;;;;10.95;7.50;;;2.10;99.90;;;;;;5015262;28;20573;-88
2021/01/27 03:58:23;;;;;;;11.97;7.93;;;2.10;99.90;;;;;;5014792;28;20233;-87
2021/01/27 04:00:51;;;;;;;8.15;7.35;;;2.10;99.90;;;;;;5015058;28;20451;-87
2021/01/27 04:03:19;;;;;;;11.40;8.73;;;2.00;99.90;;;;;;5014833;28;20206;-87
2021/01/27 04:05:45;;;;;;;10.38;8.00;;;2.00;99.90;;;;;;5014349;28;20244;-87
2021/01/27 04:08:12;;;;;;;11.10;8.50;;;2.00;99.90;;;;;;5014790;28;20215;-86
2021/01/27 04:10:39;;;;;;;9.67;8.33;;;2.00;99.90;;;;;;5014873;28;20870;-87
2021/01/27 04:13:05;;;;;;;9.73;7.45;;;2.00;99.90;;;;;;5014664;28;20856;-87
2021/01/27 04:15:32;;;;;;;9.65;6.90;;;2.00;99.90;;;;;;5014419;28;20221;-87
2021/01/27 04:17:58;;;;;;;9.48;7.93;;;2.00;99.90;;;;;;5014774;28;20836;-87
2021/01/27 04:20:26;;;;;;;8.10;6.88;;;2.00;99.90;;;;;;5014776;28;20213;-88
2021/01/27 04:22:52;;;;;;;10.27;7.87;;;2.00;99.90;;;;;;5018486;28;20197;-87
2021/01/27 04:25:19;;;;;;;7.90;6.55;;;2.00;99.90;;;;;;5028977;28;20465;-85
2021/01/27 04:27:46;;;;;;;9.15;7.28;;;2.00;99.90;;;;;;5015619;28;20207;-85
2021/01/27 04:30:17;;;;;;;9.35;6.88;;;2.10;99.90;;;;;;5015420;28;20227;-86
2021/01/27 04:32:43;;;;;;;9.00;6.70;;;2.00;99.90;;;;;;5015260;28;20227;-85
2021/01/27 04:35:11;;;;;;;7.57;6.78;;;2.00;99.90;;;;;;5014538;28;20206;-87
2021/01/27 04:37:37;;;;;;;7.90;7.05;;;2.10;99.90;;;;;;5015388;28;20214;-87
2021/01/27 04:40:06;;;;;;;11.20;6.73;;;2.10;99.90;;;;;;5014601;28;20212;-87
2021/01/27 04:42:32;;;;;;;8.32;6.85;;;2.10;99.90;;;;;;5013878;28;20456;-86
2021/01/27 04:45:00;;;;;;;9.10;6.40;;;2.10;99.90;;;;;;5015234;28;20201;-88
2021/01/27 04:47:31;;;;;;;9.85;7.13;;;2.20;99.90;;;;;;5015928;28;20278;-85
2021/01/27 04:50:01;;;;;;;6.65;5.95;;;2.10;99.90;;;;;;5014645;28;20211;-88
2021/01/27 04:53:20;;;;;;;9.38;6.60;;;2.20;99.90;;;;;;5013272;28;20292;-87
2021/01/27 04:56:25;;;;;;;8.95;7.68;;;2.20;99.90;;;;;;4953231;28;20266;-87
2021/01/27 04:58:59;;;;;;;8.13;7.43;;;2.20;99.90;;;;;;4953369;29;20201;-87
2021/01/27 05:02:08;;;;;;;7.32;6.30;;;2.20;99.90;;;;;;5006508;28;20207;-88
2021/01/27 05:04:48;;;;;;;10.27;7.50;;;2.10;99.90;;;;;;5013429;28;20213;-86
2021/01/27 05:07:19;;;;;;;7.60;6.50;;;2.10;99.90;;;;;;5013480;28;20233;-87
2021/01/27 05:09:48;;;;;;;12.63;7.57;;;2.10;99.90;;;;;;5013620;28;20200;-87
2021/01/27 05:12:16;;;;;;;9.00;7.50;;;2.20;99.90;;;;;;5013133;28;20217;-86
2021/01/27 05:14:45;;;;;;;9.82;7.25;;;2.20;99.90;;;;;;5013421;28;20302;-88
2021/01/27 05:17:14;;;;;;;8.68;6.80;;;2.20;99.90;;;;;;5013497;28;20220;-88
2021/01/27 05:19:43;;;;;;;8.60;6.83;;;2.20;99.90;;;;;;5013526;28;20205;-88
2021/01/27 05:22:09;;;;;;;10.32;7.32;;;2.10;99.90;;;;;;5012864;28;20502;-88
2021/01/27 05:24:36;;;;;;;10.15;7.00;;;2.10;99.90;;;;;;5013369;28;20270;-87
2021/01/27 05:27:06;;;;;;;9.80;7.78;;;2.20;99.90;;;;;;5013196;28;20287;-87
2021/01/27 05:29:36;;;;;;;11.27;8.30;;;2.10;99.90;;;;;;5013221;28;20212;-88
2021/01/27 05:32:08;;;;;;;9.40;7.53;;;2.10;99.90;;;;;;5012727;28;20196;-87
2021/01/27 05:34:38;;;;;;;11.05;7.63;;;2.10;99.90;;;;;;5013053;28;20212;-87
2021/01/27 05:37:08;;;;;;;10.30;8.52;;;2.10;99.90;;;;;;5012975;28;20275;-87
2021/01/27 05:39:35;;;;;;;13.35;8.80;;;2.10;99.90;;;;;;5012636;28;20243;-87
2021/01/27 05:42:12;;;;;;;9.20;8.05;;;2.10;99.90;;;;;;5012078;28;20212;-88
2021/01/27 05:44:38;;;;;;;9.20;8.40;;;2.10;99.90;;;;;;5012869;28;20208;-87
2021/01/27 05:47:27;;;;;;;11.15;9.77;;;2.10;99.90;;;;;;5012649;28;20228;-86
2021/01/27 05:49:55;;;;;;;13.50;9.75;;;2.10;99.90;;;;;;5012722;28;20829;-87
2021/01/27 05:52:25;;;;;;;9.80;7.82;;;2.10;99.90;;;;;;5012067;28;20219;-87
2021/01/27 05:54:51;;;;;;;9.88;7.85;;;2.10;99.90;;;;;;5012699;28;20789;-87
2021/01/27 05:57:22;;;;;;;8.10;6.95;;;2.00;99.90;;;;;;5012724;28;20274;-86
2021/01/27 05:59:49;;;;;;;10.55;8.32;;;2.00;99.90;;;;;;5012920;28;20216;-88
2021/01/27 06:02:16;;;;;;;10.98;9.45;;;2.00;99.90;;;;;;5012396;28;20249;-87
2021/01/27 06:04:55;;;;;;;11.23;8.80;;;2.00;99.90;;;;;;5012467;28;20195;-88
2021/01/27 06:07:25;;;;;;;11.05;8.48;;;2.00;99.90;;;;;;5012496;28;20329;-87
2021/01/27 06:09:53;;;;;;;12.40;9.82;;;2.00;99.90;;;;;;5012627;28;20211;-88
2021/01/27 06:12:27;;;;;;;12.25;8.50;;;2.00;99.90;;;;;;5012016;28;20278;-87
2021/01/27 06:15:10;;;;;;;11.27;9.13;;;2.00;99.90;;;;;;5012529;28;20864;-87
2021/01/27 06:17:42;;;;;;;14.65;9.13;;;2.00;99.90;;;;;;5012472;28;20208;-86
2021/01/27 06:20:22;;;;;;;12.60;9.73;;;1.90;99.90;;;;;;5012255;28;20262;-87
2021/01/27 06:23:29;;;;;;;12.23;8.65;;;1.90;99.90;;;;;;5011940;28;20193;-87
2021/01/27 06:26:17;;;;;;;13.70;9.80;;;2.00;99.90;;;;;;5012182;28;20228;-87
2021/01/27 06:29:03;;;;;;;13.13;10.20;;;2.00;99.90;;;;;;5012103;28;20454;-87
2021/01/27 06:31:45;;;;;;;10.75;8.40;;;2.10;99.90;;;;;;5011818;28;20558;-87
2021/01/27 06:34:43;;;;;;;10.13;8.30;;;2.10;99.90;;;;;;5012028;28;20229;-87
2021/01/27 06:37:47;;;;;;;11.40;7.80;;;2.00;99.90;;;;;;5010294;28;20704;-87
2021/01/27 06:40:34;;;;;;;9.50;7.20;;;2.00;99.90;;;;;;5010561;28;21018;-87
2021/01/27 06:43:26;;;;;;;8.60;7.40;;;2.10;99.90;;;;;;5014302;28;20457;-87
2021/01/27 06:46:28;;;;;;;10.10;7.70;;;2.10;99.90;;;;;;5013795;28;20270;-87
2021/01/27 06:49:35;;;;;;;7.20;6.13;;;2.10;99.90;;;;;;5005228;28;20208;-88
2021/01/27 06:52:18;;;;;;;7.72;6.93;;;2.10;99.90;;;;;;4937618;28;20212;-87
2021/01/27 06:55:08;;;;;;;8.60;7.25;;;2.20;99.90;;;;;;5011366;28;20201;-87
2021/01/27 06:57:52;;;;;;;10.95;6.72;;;2.20;99.90;;;;;;5009210;28;20215;-88
2021/01/27 07:00:30;;;;;;;10.93;7.57;;;2.20;99.90;;;;;;5011988;28;20209;-87
2021/01/27 07:03:12;;;;;;;10.80;7.50;;;2.20;99.90;;;;;;5011647;28;20479;-87
2021/01/27 07:06:04;;;;;;;10.73;7.67;;;2.30;99.90;;;;;;5011502;28;20479;-87
2021/01/27 07:08:50;;;;;;;11.07;6.80;;;2.30;99.90;;;;;;5011655;28;20509;-87
2021/01/27 07:11:28;;;;;;;9.07;6.63;;;2.40;99.90;;;;;;5010819;28;20452;-87
2021/01/27 07:14:08;;;;;;;10.10;7.17;;;2.40;99.90;;;;;;5011558;28;20229;-87
2021/01/27 07:16:53;;;;;;;7.80;6.90;;;2.40;99.90;;;;;;5011522;28;20533;-87
2021/01/27 07:19:44;;;;;;;8.70;7.13;;;2.50;99.90;;;;;;5011765;28;20211;-87
2021/01/27 07:22:18;;;;;;;9.13;7.00;;;2.50;99.90;;;;;;5011115;28;20209;-88
2021/01/27 07:24:55;;;;;;;7.68;5.70;;;2.50;99.90;;;;;;5011059;28;20795;-88
2021/01/27 07:27:22;;;;;;;6.70;6.00;;;2.50;99.90;;;;;;5010379;28;20227;-87
2021/01/27 07:29:55;;;;;;;6.93;5.10;;;2.50;99.90;;;;;;5010696;28;20938;-88
2021/01/27 07:32:27;;;;;;;9.33;5.97;;;2.60;99.90;;;;;;5010110;28;20491;-88
2021/01/27 07:34:59;;;;;;;7.73;5.93;;;2.60;99.90;;;;;;5011120;28;20453;-87
2021/01/27 07:37:30;;;;;;;10.63;5.70;;;2.60;99.90;;;;;;5011306;28;20468;-88
2021/01/27 07:40:06;;;;;;;9.30;6.03;;;2.70;99.90;;;;;;5011433;28;20440;-88
2021/01/27 07:42:40;;;;;;;4.78;4.20;;;2.70;99.90;;;;;;5010948;28;20209;-87
2021/01/27 07:45:12;;;;;;;7.85;6.15;;;2.80;99.90;;;;;;5011384;28;20611;-87
2021/01/27 07:47:58;;;;;;;8.50;5.70;;;2.80;99.90;;;;;;5010209;28;20210;-86
2021/01/27 07:50:25;;;;;;;8.33;4.60;;;2.90;99.90;;;;;;5010787;28;20841;-88
2021/01/27 07:53:05;;;;;;;6.33;4.80;;;2.90;99.90;;;;;;5010271;28;20488;-87
2021/01/27 07:55:39;;;;;;;6.00;4.27;;;2.90;99.90;;;;;;5010483;28;20470;-87
2021/01/27 07:58:11;;;;;;;4.35;3.10;;;3.00;99.90;;;;;;5011064;28;20455;-88
2021/01/27 08:00:43;;;;;;;6.47;3.58;;;3.00;99.90;;;;;;5010651;28;20215;-86
2021/01/27 08:03:26;;;;;;;3.87;3.57;;;2.90;99.90;;;;;;5010798;28;20202;-85
2021/01/27 08:05:59;;;;;;;4.75;3.38;;;3.00;99.90;;;;;;5014371;28;20552;-85
2021/01/27 08:08:26;;;;;;;4.60;3.60;;;3.00;99.90;;;;;;5014288;28;20220;-86
2021/01/27 08:10:54;;;;;;;5.10;3.23;;;3.10;99.90;;;;;;5013666;28;20209;-86
2021/01/27 08:13:40;;;;;;;4.27;3.33;;;3.10;99.90;;;;;;5014074;28;20538;-88
2021/01/27 08:16:26;;;;;;;3.80;3.40;;;3.20;99.90;;;;;;5014093;28;20605;-80
2021/01/27 08:19:29;;;;;;;5.20;3.60;;;3.10;99.90;;;;;;5014701;28;20942;-81
2021/01/27 08:22:02;;;;;;;3.33;2.67;;;3.10;99.90;;;;;;5013853;28;20456;-81
2021/01/27 08:24:51;;;;;;;4.43;2.72;;;3.10;99.90;;;;;;5014027;28;20298;-82
2021/01/27 08:27:31;;;;;;;5.87;3.37;;;3.00;99.90;;;;;;5014389;28;20240;-87
2021/01/27 08:30:20;;;;;;;4.50;3.93;;;3.00;99.90;;;;;;5014475;28;20460;-86
2021/01/27 08:32:47;;;;;;;3.23;2.67;;;3.00;99.90;;;;;;4994861;28;20486;-88
2021/01/27 08:35:55;;;;;;;4.50;3.40;;;2.90;99.90;;;;;;4995245;28;21033;-87
2021/01/27 08:38:27;;;;;;;5.40;3.43;;;2.90;99.90;;;;;;5012207;28;20459;-87
2021/01/27 08:40:54;;;;;;;4.67;3.40;;;2.80;99.90;;;;;;5014312;28;20939;-87
2021/01/27 08:43:28;;;;;;;4.67;3.50;;;2.80;99.90;;;;;;5014008;28;20447;-88
2021/01/27 08:45:55;;;;;;;5.05;4.07;;;2.70;99.90;;;;;;5013329;28;20559;-87
2021/01/27 08:48:48;;;;;;;6.13;3.50;;;2.60;99.90;;;;;;5013095;28;20729;-87
2021/01/27 08:51:46;;;;;;;9.00;3.97;;;2.60;99.90;;;;;;5012523;28;20670;-87
2021/01/27 08:54:29;;;;;;;3.55;3.20;;;2.60;99.90;;;;;;5007542;28;20971;-87
2021/01/27 08:57:17;;;;;;;4.13;3.60;;;2.50;99.90;;;;;;5011163;28;20233;-86
2021/01/27 09:00:02;;;;;;;4.70;3.50;;;2.40;99.90;;;;;;5021211;28;20444;-88
2021/01/27 09:02:54;;;;;;;4.10;3.70;;;2.50;99.90;;;;;;5019271;28;20209;-89
2021/01/27 09:05:37;;;;;;;5.70;3.60;;;2.60;99.90;;;;;;5011543;28;20452;-88
2021/01/27 09:08:11;;;;;;;3.83;3.03;;;2.60;99.90;;;;;;5010301;28;20449;-87
2021/01/27 09:10:40;;;;;;;5.60;3.97;;;2.60;99.90;;;;;;5012045;28;20444;-88
2021/01/27 09:13:23;;;;;;;4.00;3.60;;;2.60;99.90;;;;;;5013062;28;20508;-88
2021/01/27 09:15:56;;;;;;;5.50;4.35;;;2.60;99.90;;;;;;5009415;28;20832;-88
2021/01/27 09:18:22;;;;;;;4.40;4.00;;;2.60;99.90;;;;;;5011483;28;20213;-88
2021/01/27 09:20:50;;;;;;;4.47;3.65;;;2.60;99.90;;;;;;5012328;28;20299;-88
2021/01/27 09:23:19;;;;;;;4.57;3.85;;;2.60;99.90;;;;;;5012680;28;20190;-87
2021/01/27 09:25:47;;;;;;;4.43;3.93;;;2.60;99.90;;;;;;5012477;28;20217;-88
2021/01/27 09:28:22;;;;;;;4.78;3.97;;;2.60;99.90;;;;;;5012680;28;20464;-86
2021/01/27 09:30:49;;;;;;;5.20;4.07;;;2.60;99.90;;;;;;5012828;28;20287;-87
2021/01/27 09:33:17;;;;;;;7.45;5.00;;;2.60;99.90;;;;;;5015934;28;20468;-88
2021/01/27 09:35:46;;;;;;;6.60;5.53;;;2.60;99.90;;;;;;5016202;28;20217;-92
2021/01/27 09:38:18;;;;;;;7.38;5.60;;;2.60;99.90;;;;;;5016429;28;20255;-90
2021/01/27 09:40:47;;;;;;;4.80;4.20;;;2.50;99.90;;;;;;5013080;28;20193;-91
2021/01/27 09:43:17;;;;;;;7.20;4.97;;;2.50;99.90;;;;;;5012892;28;20445;-85
2021/01/27 09:45:47;;;;;;;9.30;6.20;;;2.50;99.90;;;;;;5011783;28;20556;-86
2021/01/27 09:48:16;;;;;;;8.15;6.00;;;2.50;99.90;;;;;;5012142;28;20541;-85
2021/01/27 09:50:49;;;;;;;8.47;5.37;;;2.40;99.90;;;;;;5012025;28;20197;-85
2021/01/27 09:53:24;;;;;;;5.20;4.60;;;2.40;99.90;;;;;;5011356;28;20622;-86
2021/01/27 09:55:51;;;;;;;7.70;5.55;;;2.30;99.90;;;;;;5010635;28;20458;-85
2021/01/27 09:58:18;;;;;;;9.18;5.55;;;2.30;99.90;;;;;;5011232;28;20203;-85
2021/01/27 10:00:44;;;;;;;7.70;6.30;;;2.30;99.90;;;;;;5012824;28;20193;-88
2021/01/27 10:03:23;;;;;;;8.05;5.55;;;2.30;99.90;;;;;;5012214;28;20452;-86
2021/01/27 10:05:49;;;;;;;9.73;5.72;;;2.20;99.90;;;;;;5011814;28;20220;-87
2021/01/27 10:08:21;;;;;;;7.38;5.82;;;2.20;99.90;;;;;;5004311;28;20223;-86
2021/01/27 10:10:59;;;;;;;10.80;6.90;;;2.20;99.90;;;;;;5011508;28;20212;-86
2021/01/27 10:13:31;;;;;;;9.02;5.18;;;2.20;99.90;;;;;;5013472;28;20471;-85
2021/01/27 10:16:02;;;;;;;11.95;5.80;;;2.10;99.90;;;;;;5012810;28;20221;-85
2021/01/27 10:18:28;;;;;;;6.43;4.68;;;2.10;99.90;;;;;;5012290;28;20192;-88
2021/01/27 10:21:01;;;;;;;7.90;5.82;;;2.10;99.90;;;;;;5011887;28;20216;-88
2021/01/27 10:23:36;;;;;;;6.13;5.00;;;2.00;99.90;;;;;;5014432;28;20201;-86
2021/01/27 10:26:37;;;;;;;9.20;4.10;;;2.00;99.90;;;;;;5010761;28;20216;-86
2021/01/27 10:29:11;;;;;;;8.15;5.68;;;2.10;99.90;;;;;;5010210;28;20220;-87
2021/01/27 10:31:38;;;;;;;7.80;5.03;;;2.10;99.90;;;;;;5012167;28;20200;-87
2021/01/27 10:34:05;;;;;;;9.02;6.35;;;2.10;99.90;;;;;;5012263;28;20223;-87
2021/01/27 10:36:46;;;;;;;8.18;5.00;;;2.10;99.90;;;;;;5010142;28;20960;-88
2021/01/27 10:39:17;;;;;;;6.07;4.10;;;2.20;99.90;;;;;;5011829;28;20200;-90
2021/01/27 10:41:45;;;;;;;14.57;5.88;;;2.30;99.90;;;;;;5012678;28;20213;-90
2021/01/27 10:44:19;;;;;;;5.72;5.13;;;2.30;99.90;;;;;;5008075;28;20287;-90
2021/01/27 10:46:45;;;;;;;4.50;4.10;;;2.30;99.90;;;;;;5010228;28;20219;-90
2021/01/27 10:49:12;;;;;;;13.35;3.83;;;2.30;99.90;;;;;;5011008;28;20204;-88
2021/01/27 10:51:38;;;;;;;6.80;4.55;;;2.30;99.90;;;;;;5011532;28;20248;-89
2021/01/27 10:54:05;;;;;;;4.05;3.63;;;2.40;99.90;;;;;;5012546;28;20223;-88
2021/01/27 10:56:32;;;;;;;5.75;3.60;;;2.30;99.90;;;;;;5011691;28;20236;-88
2021/01/27 10:58:58;;;;;;;7.97;4.90;;;2.30;99.90;;;;;;5011236;28;20207;-89
2021/01/27 11:01:24;;;;;;;8.40;5.53;;;2.40;99.90;;;;;;5011664;28;20208;-89
2021/01/27 11:03:50;;;;;;;5.28;3.92;;;2.40;99.90;;;;;;5012561;28;20200;-86
2021/01/27 11:06:18;;;;;;;5.45;4.78;;;2.40;99.90;;;;;;5012073;28;20225;-89
2021/01/27 11:08:45;;;;;;;4.50;4.20;;;2.40;99.90;;;;;;5011881;28;20205;-89
2021/01/27 11:11:13;;;;;;;5.82;5.22;;;2.40;99.90;;;;;;5011933;28;20478;-89
2021/01/27 11:13:40;;;;;;;5.65;4.70;;;2.40;99.90;;;;;;5011885;28;20228;-91
2021/01/27 11:16:08;;;;;;;6.95;6.28;;;2.40;99.90;;;;;;5012783;28;20231;-88
2021/01/27 11:18:35;;;;;;;6.43;5.83;;;2.50;99.90;;;;;;5012545;28;20208;-89
2021/01/27 11:21:01;;;;;;;5.97;5.40;;;2.50;99.90;;;;;;5023045;28;20455;-87
2021/01/27 11:23:28;;;;;;;7.18;6.57;;;2.50;99.90;;;;;;5029118;28;20439;-88
2021/01/27 11:25:54;;;;;;;8.18;6.30;;;2.50;99.90;;;;;;5010343;28;20211;-88
2021/01/27 11:28:21;;;;;;;9.25;6.53;;;2.50;99.90;;;;;;5010966;28;20308;-88
2021/01/27 11:30:51;;;;;;;8.88;6.25;;;2.50;99.90;;;;;;5011033;28;20569;-88
2021/01/27 11:33:18;;;;;;;9.02;5.82;;;2.50;99.90;;;;;;5010361;28;20260;-89
2021/01/27 11:35:45;;;;;;;6.43;5.82;;;2.60;99.90;;;;;;5010234;28;20233;-89
2021/01/27 11:38:11;;;;;;;7.00;6.13;;;2.60;99.90;;;;;;5010736;28;20712;-89
2021/01/27 11:40:37;;;;;;;10.83;5.60;;;2.60;99.90;;;;;;5014672;28;20288;-88
2021/01/27 11:43:04;;;;;;;7.07;4.77;;;2.50;99.90;;;;;;5015370;28;20451;-89
2021/01/27 11:45:30;;;;;;;7.35;5.90;;;2.60;99.90;;;;;;5014362;28;20464;-88
2021/01/27 11:47:57;;;;;;;7.20;5.82;;;2.60;99.90;;;;;;5014537;28;20716;-88
2021/01/27 11:50:27;;;;;;;10.70;6.85;;;2.70;99.90;;;;;;5014694;28;20666;-87
2021/01/27 11:52:53;;;;;;;8.10;6.15;;;2.70;99.90;;;;;;5013006;28;20609;-88
2021/01/27 11:55:21;;;;;;;6.30;5.20;;;2.80;99.90;;;;;;5012305;28;20194;-88
2021/01/27 11:57:47;;;;;;;7.32;5.82;;;2.80;99.90;;;;;;5014387;28;20445;-91
2021/01/27 12:00:16;;;;;;;6.65;5.93;;;2.80;99.90;;;;;;5014563;28;20209;-88
2021/01/27 12:02:43;;;;;;;5.53;4.93;;;2.90;99.90;;;;;;5014488;28;20195;-88
2021/01/27 12:05:12;;;;;;;6.93;5.00;;;2.90;99.90;;;;;;5014547;28;20436;-92
2021/01/27 12:07:40;;;;;;;5.15;4.75;;;2.90;99.90;;;;;;5012711;28;20275;-90
2021/01/27 12:10:11;;;;;;;6.77;4.80;;;3.00;99.90;;;;;;5014135;28;20202;-89
2021/01/27 12:12:40;;;;;;;6.70;4.60;;;3.10;99.90;;;;;;5012678;28;20454;-90
2021/01/27 12:15:13;;;;;;;5.63;4.37;;;3.10;99.90;;;;;;5012819;28;20445;-90
2021/01/27 12:17:43;;;;;;;6.57;4.00;;;3.20;99.90;;;;;;5014611;28;20450;-88
2021/01/27 12:20:12;;;;;;;5.75;3.38;;;3.20;99.90;;;;;;5014117;28;20456;-88
2021/01/27 12:22:39;;;;;;;4.50;3.50;;;3.20;99.90;;;;;;5014057;28;20328;-88
2021/01/27 12:25:06;;;;;;;4.53;4.03;;;3.10;99.90;;;;;;5013917;28;20524;-92
2021/01/27 12:27:33;;;;;;;4.60;3.90;;;3.10;99.90;;;;;;5013517;28;20476;-87
2021/01/27 12:29:59;;;;;;;6.50;4.60;;;3.10;99.90;;;;;;5013964;28;20459;-89
2021/01/27 12:32:25;;;;;;;3.90;3.60;;;3.20;99.90;;;;;;5013921;28;20450;-88
2021/01/27 12:34:52;;;;;;;7.30;4.87;;;3.30;99.90;;;;;;5013068;28;20885;-90
2021/01/27 12:37:19;;;;;;;5.47;4.80;;;3.40;99.90;;;;;;5013838;28;20467;-90
2021/01/27 12:39:45;;;;;;;6.40;5.10;;;3.40;99.90;;;;;;5014094;28;20456;-89
2021/01/27 12:42:11;;;;;;;6.47;5.50;;;3.40;99.90;;;;;;5014440;28;20955;-88
2021/01/27 12:44:39;;;;;;;6.20;4.40;;;3.50;99.90;;;;;;5014635;28;20452;-87
2021/01/27 12:47:13;;;;;;;5.83;5.30;;;3.40;99.90;;;;;;5012017;28;20469;-87
2021/01/27 12:49:39;;;;;;;7.17;4.40;;;3.50;99.90;;;;;;5012324;28;20438;-87
2021/01/27 12:52:07;;;;;;;8.97;5.40;;;3.40;99.90;;;;;;5013842;28;20806;-91
2021/01/27 12:54:34;;;;;;;6.37;4.70;;;3.60;99.90;;;;;;5013207;28;20565;-87
2021/01/27 12:57:00;;;;;;;5.70;4.90;;;3.70;99.90;;;;;;5012671;28;20465;-88
2021/01/27 12:59:26;;;;;;;6.13;3.70;;;3.90;99.90;;;;;;5013718;28;20456;-89
2021/01/27 13:01:53;;;;;;;6.63;4.63;;;4.00;99.90;;;;;;5013539;28;20445;-90
2021/01/27 13:04:19;;;;;;;4.93;4.17;;;4.30;99.90;;;;;;5013406;28;20457;-87
2021/01/27 13:06:45;;;;;;;5.57;4.10;;;4.30;99.90;;;;;;5012946;28;20460;-87
2021/01/27 13:09:11;;;;;;;4.53;4.10;;;4.20;99.90;;;;;;5012375;28;20867;-88
2021/01/27 13:11:38;;;;;;;4.60;4.00;;;4.00;99.90;;;;;;5012712;28;20445;-88
2021/01/27 13:14:05;;;;;;;5.50;4.50;;;3.90;99.90;;;;;;5013130;28;20478;-87
2021/01/27 13:16:31;;;;;;;7.00;4.20;;;3.80;99.90;;;;;;5012505;28;20841;-88
2021/01/27 13:18:57;;;;;;;4.30;3.90;;;3.70;99.90;;;;;;5012768;28;20448;-87
2021/01/27 13:21:24;;;;;;;4.53;4.13;;;3.60;99.90;;;;;;5012550;28;20446;-87
2021/01/27 13:23:50;;;;;;;6.60;4.73;;;3.40;99.90;;;;;;5011489;28;20965;-87